OOH weather

Hoonah Seaplane Base
Hoonah, Alaska, United States

Public forecast

Using degrees Fahrenheit for public forecast. Weather courtesy of forecast.io.

METAR (pilot weather report)

Closest report is Hoonah Airport, 1.6 nm (3.0 km) SE. Retrieved 2019/05/23 11:56 UTC (49 minutes ago):

PAOH 231156Z AUTO 00000KT 10SM OVC090 08/06 A3014 RMK AO2 SLP208 T00780061 10100 20078 58001

TAF (pilot weather forecast)

Closest forecast is Gustavus Airport, 20.5 nm (37.9 km) NNW. Retrieved 2019/05/23 12:30 UTC (15 minutes ago):

TAF PAGS 231127Z 2312/2412 VRB03KT P6SM OVC015 FM231600 VRB03KT P6SM -RA BKN020 OVC040 FM232200 21006KT P6SM SCT025 BKN035 OVC050 AMD LTD TO CLD VIS AND WIND